createdAt,value
2022-09-15T00:02:10.362Z,97990.59
2022-09-15T00:04:37.910Z,97976.38
2022-09-15T00:07:05.057Z,97964.59
2022-09-15T00:09:32.153Z,97954.03
2022-09-15T00:11:59.523Z,97966.75
2022-09-15T00:14:26.627Z,97992.06
2022-09-15T00:16:53.940Z,97983.47
2022-09-15T00:19:21.438Z,97975.09
2022-09-15T00:21:48.540Z,97987.97
2022-09-15T00:24:15.650Z,97999.97
2022-09-15T00:26:43.054Z,98015.44
2022-09-15T00:29:10.517Z,98018.19
2022-09-15T00:31:37.641Z,98033.31
2022-09-15T00:34:05.075Z,98038.00
2022-09-15T00:36:32.234Z,98043.84
2022-09-15T00:38:59.399Z,98059.59
2022-09-15T00:41:26.771Z,98063.94
2022-09-15T00:43:53.846Z,98070.97
2022-09-15T00:46:22.749Z,98073.22
2022-09-15T00:48:53.125Z,98076.78
2022-09-15T00:51:21.088Z,98078.81
2022-09-15T00:53:48.365Z,98076.22
2022-09-15T00:56:15.925Z,98072.72
2022-09-15T00:58:49.165Z,98057.16
2022-09-15T01:01:16.729Z,98061.94
2022-09-15T01:03:43.825Z,98055.63
2022-09-15T01:06:15.652Z,98059.06
2022-09-15T01:08:45.522Z,98053.72
2022-09-15T01:11:15.098Z,98047.25
2022-09-15T01:13:43.193Z,98051.59
2022-09-15T01:19:05.803Z,98039.28
2022-09-15T01:21:35.650Z,98037.84
2022-09-15T01:24:21.387Z,98044.72
2022-09-15T01:26:54.775Z,98044.69
2022-09-15T01:29:30.621Z,98044.59
2022-09-15T01:32:18.727Z,98040.50
2022-09-15T01:34:50.134Z,98056.91
2022-09-15T01:37:18.138Z,98044.47
2022-09-15T01:39:45.873Z,98049.53
2022-09-15T01:42:13.397Z,98048.88
2022-09-15T01:44:52.378Z,98047.66
2022-09-15T01:47:19.504Z,98049.25
2022-09-15T01:49:48.852Z,98051.94
2022-09-15T01:52:16.794Z,98058.31
2022-09-15T01:54:48.756Z,98060.00
2022-09-15T01:57:17.346Z,98053.09
2022-09-15T01:59:44.518Z,98054.84
2022-09-15T02:02:12.832Z,98063.44
2022-09-15T02:04:41.595Z,98051.19
2022-09-15T02:07:16.401Z,98054.81
2022-09-15T02:09:46.530Z,98051.50
2022-09-15T02:12:33.948Z,98054.59
2022-09-15T02:15:08.060Z,98048.53
2022-09-15T02:17:38.233Z,98043.97
2022-09-15T02:20:08.798Z,98053.84
2022-09-15T02:22:37.448Z,98045.19
2022-09-15T02:25:09.538Z,98048.28
2022-09-15T02:27:38.939Z,98056.63
2022-09-15T02:30:09.412Z,98057.37
2022-09-15T02:32:37.225Z,98062.19
2022-09-15T02:35:06.671Z,98054.75
2022-09-15T02:37:33.898Z,98057.34
2022-09-15T02:40:01.413Z,98051.09
2022-09-15T02:42:29.659Z,98051.94
2022-09-15T02:44:56.796Z,98046.97
2022-09-15T02:47:24.294Z,98043.56
2022-09-15T02:49:51.609Z,98043.66
2022-09-15T02:52:18.724Z,98044.41
2022-09-15T02:54:46.149Z,98049.63
2022-09-15T02:57:16.517Z,98047.53
2022-09-15T03:00:02.155Z,98053.66
2022-09-15T03:02:29.852Z,98053.56
2022-09-15T03:04:56.994Z,98056.03
2022-09-15T03:07:24.906Z,98058.28
2022-09-15T03:09:52.274Z,98058.19
2022-09-15T03:12:19.431Z,98070.66
2022-09-15T03:14:47.071Z,98069.50
2022-09-15T03:17:14.474Z,98072.28
2022-09-15T03:19:41.625Z,98078.25
2022-09-15T03:22:09.494Z,98068.41
2022-09-15T03:24:37.284Z,98073.31
2022-09-15T03:27:04.984Z,98052.91
2022-09-15T03:29:32.101Z,98056.06
2022-09-15T03:31:59.529Z,98045.19
2022-09-15T03:34:26.789Z,98050.28
2022-09-15T03:36:53.892Z,98059.13
2022-09-15T03:39:21.253Z,98055.13
2022-09-15T03:41:48.362Z,98043.19
2022-09-15T03:44:15.490Z,98042.44
2022-09-15T03:46:42.901Z,98046.97
2022-09-15T03:49:10.029Z,98054.72
2022-09-15T03:51:37.126Z,98058.19
2022-09-15T03:54:04.502Z,98063.72
2022-09-15T03:56:32.675Z,98070.44
2022-09-15T03:59:01.545Z,98077.00
2022-09-15T04:01:29.334Z,98081.22
2022-09-15T04:03:57.904Z,98077.19
2022-09-15T04:06:25.277Z,98085.75
2022-09-15T04:08:52.681Z,98083.94
2022-09-15T04:11:20.905Z,98080.37
2022-09-15T04:13:48.051Z,98071.50
2022-09-15T04:16:16.114Z,98067.50
2022-09-15T04:18:43.690Z,98067.16
2022-09-15T04:21:12.199Z,98072.87
2022-09-15T04:23:39.726Z,98060.72
2022-09-15T04:26:08.003Z,98069.84
2022-09-15T04:28:36.142Z,98068.25
2022-09-15T04:31:07.475Z,98074.88
2022-09-15T04:33:35.137Z,98087.84
2022-09-15T04:36:03.276Z,98104.84
2022-09-15T04:38:31.520Z,98115.84
2022-09-15T04:40:58.886Z,98119.63
2022-09-15T04:43:26.395Z,98110.69
2022-09-15T04:45:53.626Z,98122.06
2022-09-15T04:48:21.501Z,98112.44
2022-09-15T04:50:48.687Z,98106.72
2022-09-15T04:53:16.035Z,98100.38
2022-09-15T04:55:43.659Z,98080.75
2022-09-15T04:58:10.962Z,98086.69
2022-09-15T05:00:42.924Z,98080.56
2022-09-15T05:03:10.906Z,98073.53
2022-09-15T05:05:38.350Z,98086.50
2022-09-15T05:08:05.794Z,98088.47
2022-09-15T05:10:33.241Z,98092.72
2022-09-15T05:13:00.333Z,98101.13
2022-09-15T05:15:27.455Z,98107.81
2022-09-15T05:17:54.877Z,98112.56
2022-09-15T05:20:22.553Z,98117.41
2022-09-15T05:22:49.687Z,98133.91
2022-09-15T05:25:17.058Z,98144.34
2022-09-15T05:27:44.150Z,98148.97
2022-09-15T05:30:36.041Z,98144.50
2022-09-15T05:32:58.700Z,98143.69
2022-09-15T05:35:25.812Z,98155.78
2022-09-15T05:37:52.979Z,98154.28
2022-09-15T05:40:22.126Z,98143.50
2022-09-15T05:42:49.337Z,98138.78
2022-09-15T05:45:16.432Z,98141.19
2022-09-15T05:47:43.870Z,98147.72
2022-09-15T05:50:11.442Z,98148.78
2022-09-15T05:52:38.660Z,98134.69
2022-09-15T05:55:06.114Z,98122.97
2022-09-15T05:57:33.240Z,98131.34
2022-09-15T06:00:00.343Z,98129.00
2022-09-15T06:02:27.801Z,98129.19
2022-09-15T06:04:55.197Z,98129.72
2022-09-15T06:07:22.394Z,98135.75
2022-09-15T06:09:49.891Z,98143.91
2022-09-15T06:12:18.397Z,98149.50
2022-09-15T06:14:47.303Z,98145.97
2022-09-15T06:17:14.402Z,98158.84
2022-09-15T06:19:41.793Z,98159.19
2022-09-15T06:22:08.966Z,98150.88
2022-09-15T06:24:36.056Z,98148.22
2022-09-15T06:27:03.580Z,98166.06
2022-09-15T06:29:31.732Z,98187.37
2022-09-15T06:32:02.801Z,98183.44
2022-09-15T06:37:15.187Z,98175.59
2022-09-15T06:39:45.508Z,98175.44
2022-09-15T06:42:14.007Z,98185.56
2022-09-15T06:44:41.776Z,98199.00
2022-09-15T06:47:10.527Z,98184.03
2022-09-15T06:49:37.674Z,98179.47
2022-09-15T06:52:05.193Z,98181.94
2022-09-15T06:54:32.613Z,98183.22
2022-09-15T06:56:59.716Z,98173.78
2022-09-15T06:59:26.848Z,98180.75
2022-09-15T07:01:55.671Z,98167.81
2022-09-15T07:04:22.814Z,98177.69
2022-09-15T07:06:50.611Z,98184.03
2022-09-15T07:09:18.444Z,98189.97
2022-09-15T07:11:45.771Z,98194.03
2022-09-15T07:14:12.921Z,98199.00
2022-09-15T07:16:40.396Z,98194.16
2022-09-15T07:19:07.594Z,98197.13
2022-09-15T07:21:35.018Z,98194.50
2022-09-15T07:24:06.424Z,98197.31
2022-09-15T07:26:34.609Z,98202.00
2022-09-15T07:29:02.439Z,98206.19
2022-09-15T07:31:31.187Z,98205.03
2022-09-15T07:33:59.656Z,98217.28
2022-09-15T07:36:26.903Z,98209.31
2022-09-15T07:38:54.268Z,98218.78
2022-09-15T07:41:22.565Z,98220.75
2022-09-15T07:43:50.642Z,98211.44
2022-09-15T07:46:18.444Z,98220.88
2022-09-15T07:48:45.972Z,98209.16
2022-09-15T07:51:13.158Z,98210.87
2022-09-15T07:53:40.610Z,98212.00
2022-09-15T07:56:08.011Z,98221.94
2022-09-15T07:58:35.111Z,98218.22
2022-09-15T08:01:06.099Z,98228.88
2022-09-15T08:03:33.531Z,98226.72
2022-09-15T08:06:01.314Z,98217.13
2022-09-15T08:08:28.441Z,98217.75
2022-09-15T08:10:55.994Z,98214.75
2022-09-15T08:13:23.217Z,98224.87
2022-09-15T08:15:50.831Z,98218.31
2022-09-15T08:18:18.286Z,98229.34
2022-09-15T08:20:45.411Z,98234.13
2022-09-15T08:23:12.511Z,98226.91
2022-09-15T08:25:40.958Z,98228.47
2022-09-15T08:28:08.349Z,98226.84
2022-09-15T08:30:35.475Z,98225.75
2022-09-15T08:33:02.871Z,98227.16
2022-09-15T08:35:31.373Z,98216.69
2022-09-15T08:37:58.857Z,98207.78
2022-09-15T08:40:28.646Z,98208.75
2022-09-15T08:42:55.850Z,98204.34
2022-09-15T08:45:24.996Z,98202.06
2022-09-15T08:47:55.978Z,98193.22
2022-09-15T08:50:31.107Z,98188.44
2022-09-15T08:53:02.988Z,98189.53
2022-09-15T08:55:56.375Z,98196.59
2022-09-15T08:58:28.502Z,98180.00
2022-09-15T09:01:01.623Z,98181.50
2022-09-15T09:03:32.102Z,98175.62
2022-09-15T09:06:08.805Z,98171.22
2022-09-15T09:08:39.306Z,98177.69
2022-09-15T09:11:11.952Z,98180.84
2022-09-15T09:13:58.109Z,98175.03
2022-09-15T09:16:28.055Z,98167.75
2022-09-15T09:19:04.582Z,98156.37
2022-09-15T09:21:32.240Z,98162.91
2022-09-15T09:24:26.077Z,98170.00
2022-09-15T09:26:54.672Z,98165.66
2022-09-15T09:29:27.932Z,98160.91
2022-09-15T09:31:55.004Z,98160.31
2022-09-15T09:34:25.415Z,98161.66
2022-09-15T09:36:53.147Z,98155.25
2022-09-15T09:39:20.817Z,98149.63
2022-09-15T09:41:48.406Z,98156.34
2022-09-15T09:44:15.551Z,98151.66
2022-09-15T09:46:43.059Z,98149.56
2022-09-15T09:49:23.579Z,98138.41
2022-09-15T09:51:55.179Z,98134.25
2022-09-15T09:54:25.172Z,98138.97
2022-09-15T09:56:52.538Z,98128.50
2022-09-15T09:59:38.827Z,98125.25
2022-09-15T10:02:12.025Z,98112.97
2022-09-15T10:04:39.910Z,98109.94
2022-09-15T10:07:07.049Z,98102.87
2022-09-15T10:09:34.175Z,98086.84
2022-09-15T10:12:04.384Z,98093.63
2022-09-15T10:14:36.002Z,98084.09
2022-09-15T10:17:06.545Z,98083.50
2022-09-15T10:19:34.954Z,98074.47
2022-09-15T10:22:02.100Z,98055.88
2022-09-15T10:24:33.757Z,98049.63
2022-09-15T10:27:19.742Z,98048.97
2022-09-15T10:29:47.207Z,98058.13
2022-09-15T10:32:25.659Z,98047.34
2022-09-15T10:35:00.918Z,98043.84
2022-09-15T10:37:36.471Z,98052.91
2022-09-15T10:40:08.693Z,98046.44
2022-09-15T10:42:35.781Z,98051.94
2022-09-15T10:45:02.979Z,98054.75
2022-09-15T10:47:33.593Z,98055.31
2022-09-15T10:50:19.282Z,98052.53
2022-09-15T10:52:46.584Z,98050.78
2022-09-15T10:55:13.653Z,98065.25
2022-09-15T10:57:40.757Z,98064.72
2022-09-15T11:00:20.911Z,98059.69
2022-09-15T11:03:06.954Z,98064.94
2022-09-15T11:05:34.348Z,98069.97
2022-09-15T11:08:16.929Z,98052.63
2022-09-15T11:10:50.448Z,98056.06
2022-09-15T11:13:21.072Z,98051.97
2022-09-15T11:16:07.426Z,98066.41
2022-09-15T11:18:37.631Z,98064.06
2022-09-15T11:21:08.019Z,98054.91
2022-09-15T11:23:38.004Z,98056.53
2022-09-15T11:26:07.626Z,98062.47
2022-09-15T11:28:45.255Z,98057.22
2022-09-15T11:31:17.158Z,98059.31
2022-09-15T11:33:46.176Z,98055.25
2022-09-15T11:36:33.774Z,98050.03
2022-09-15T11:39:04.336Z,98043.66
2022-09-15T11:41:34.612Z,98029.25
2022-09-15T11:44:20.515Z,98014.41
2022-09-15T11:46:53.937Z,98009.63
2022-09-15T11:49:22.570Z,98007.00
2022-09-15T11:51:54.703Z,97989.94
2022-09-15T11:54:24.025Z,97985.03
2022-09-15T11:56:51.481Z,97988.06
2022-09-15T11:59:28.633Z,97974.03
2022-09-15T12:02:10.010Z,97986.59
2022-09-15T12:04:58.247Z,98005.84
2022-09-15T12:07:28.943Z,98009.00
2022-09-15T12:10:03.526Z,98008.94
2022-09-15T12:12:31.363Z,98005.00
2022-09-15T12:14:59.084Z,98000.66
2022-09-15T12:17:31.456Z,97995.31
2022-09-15T12:20:01.652Z,97998.66
2022-09-15T12:22:30.883Z,97996.06
2022-09-15T12:25:01.881Z,97985.62
2022-09-15T12:27:29.440Z,97973.72
2022-09-15T12:29:57.268Z,97960.38
2022-09-15T12:32:32.066Z,97965.34
2022-09-15T12:35:02.270Z,97965.87
2022-09-15T12:37:31.011Z,97971.38
2022-09-15T12:39:58.326Z,97978.31
2022-09-15T12:42:26.735Z,97967.50
2022-09-15T12:44:55.001Z,97954.09
2022-09-15T12:47:26.791Z,97944.66
2022-09-15T12:49:55.368Z,97973.75
2022-09-15T12:52:22.493Z,97994.44
2022-09-15T12:55:12.285Z,98011.97
2022-09-15T12:57:39.722Z,98020.03
2022-09-15T13:00:26.699Z,98015.97
2022-09-15T13:02:54.176Z,98011.25
2022-09-15T13:05:53.813Z,98001.69
2022-09-15T13:08:23.901Z,97998.81
2022-09-15T13:11:14.758Z,97997.37
2022-09-15T13:13:48.269Z,97987.25
2022-09-15T13:16:17.897Z,97968.91
2022-09-15T13:18:46.223Z,97970.03
2022-09-15T13:21:14.449Z,97972.72
2022-09-15T13:23:42.028Z,97979.47
2022-09-15T13:26:10.090Z,97966.19
2022-09-15T13:28:37.331Z,97981.06
2022-09-15T13:31:22.995Z,97986.03
2022-09-15T13:39:43.418Z,97991.69
2022-09-15T13:42:19.684Z,97974.37
2022-09-15T13:44:55.649Z,97971.25
2022-09-15T13:47:31.854Z,97974.47
2022-09-15T13:50:18.165Z,97982.66
2022-09-15T13:52:48.013Z,97991.03
2022-09-15T13:55:27.757Z,97977.12
2022-09-15T14:00:45.767Z,97997.69
2022-09-15T14:03:15.444Z,97988.84
2022-09-15T14:05:42.582Z,97988.16
2022-09-15T14:08:11.657Z,97989.69
2022-09-15T14:10:45.612Z,97983.28
2022-09-15T14:13:16.547Z,97976.28
2022-09-15T14:15:56.285Z,97982.56
2022-09-15T14:18:23.642Z,97972.66
2022-09-15T14:21:04.056Z,97962.47
2022-09-15T14:23:31.489Z,97957.41
2022-09-15T14:26:00.362Z,97977.06
2022-09-15T14:28:31.440Z,97989.03
2022-09-15T14:31:00.213Z,97986.81
2022-09-15T14:33:46.446Z,97996.53
2022-09-15T14:36:24.676Z,98006.59
2022-09-15T14:39:04.991Z,98015.38
2022-09-15T14:41:33.811Z,98025.66
2022-09-15T14:44:01.118Z,98010.44
2022-09-15T14:46:35.518Z,98030.34
2022-09-15T14:49:12.084Z,98066.38
2022-09-15T14:51:39.169Z,98048.91
2022-09-15T14:54:06.595Z,98009.47
2022-09-15T14:56:35.159Z,98005.09
2022-09-15T14:59:06.668Z,98033.41
2022-09-15T15:01:46.032Z,98044.19
2022-09-15T15:04:13.122Z,98063.31
2022-09-15T15:07:01.716Z,98053.62
2022-09-15T15:09:28.789Z,98043.88
2022-09-15T15:11:57.407Z,98049.06
2022-09-15T15:14:30.618Z,98033.03
2022-09-15T15:16:59.308Z,97993.62
2022-09-15T15:19:33.739Z,97994.31
2022-09-15T15:22:08.459Z,98023.78
2022-09-15T15:24:35.840Z,98031.88
2022-09-15T15:27:23.015Z,98038.81
2022-09-15T15:29:50.550Z,98028.69
2022-09-15T15:32:20.828Z,98023.59
2022-09-15T15:34:57.739Z,98047.38
2022-09-15T15:37:29.283Z,98054.28
2022-09-15T15:39:56.988Z,98056.94
2022-09-15T15:42:24.604Z,98050.66
2022-09-15T15:45:01.058Z,98041.84
2022-09-15T15:47:32.671Z,98024.69
2022-09-15T15:50:16.308Z,98018.19
2022-09-15T15:52:44.023Z,98003.22
2022-09-15T15:55:20.871Z,97996.44
2022-09-15T15:57:50.134Z,98002.81
2022-09-15T16:00:22.066Z,98006.44
2022-09-15T16:02:50.780Z,98001.59
2022-09-15T16:05:19.715Z,97984.75
2022-09-15T16:07:46.901Z,97970.81
2022-09-15T16:10:15.015Z,97953.69
2022-09-15T16:12:42.175Z,97946.28
2022-09-15T16:15:17.617Z,97947.25
2022-09-15T16:17:46.959Z,97951.81
2022-09-15T16:20:19.734Z,97944.69
2022-09-15T16:22:48.096Z,97936.81
2022-09-15T16:25:21.579Z,97925.16
2022-09-15T16:27:49.061Z,97909.41
2022-09-15T16:30:16.162Z,97912.09
2022-09-15T16:32:43.320Z,97923.91
2022-09-15T16:35:31.625Z,97928.03
2022-09-15T16:37:58.749Z,97931.03
2022-09-15T16:40:26.520Z,97939.94
2022-09-15T16:42:53.684Z,97947.62
2022-09-15T16:45:38.020Z,97942.91
2022-09-15T16:48:08.752Z,97954.22
2022-09-15T16:50:37.807Z,97970.56
2022-09-15T16:53:09.521Z,97961.59
2022-09-15T16:55:38.857Z,97964.97
2022-09-15T16:58:06.175Z,97965.72
2022-09-15T17:00:36.170Z,97968.00
2022-09-15T17:03:04.029Z,97977.78
2022-09-15T17:05:33.039Z,97987.84
2022-09-15T17:08:00.158Z,97997.37
2022-09-15T17:10:27.802Z,98001.31
2022-09-15T17:12:57.597Z,97990.34
2022-09-15T17:15:28.851Z,97995.75
2022-09-15T17:17:56.665Z,97990.50
2022-09-15T17:20:25.177Z,97981.91
2022-09-15T17:22:52.654Z,97984.09
2022-09-15T17:25:22.285Z,97975.34
2022-09-15T17:27:49.750Z,97969.31
2022-09-15T17:30:17.188Z,97960.94
2022-09-15T17:32:44.789Z,97950.50
2022-09-15T17:35:13.537Z,97955.91
2022-09-15T17:37:40.683Z,97959.59
2022-09-15T17:40:08.340Z,97951.28
2022-09-15T17:42:35.513Z,97954.03
2022-09-15T17:45:02.661Z,97961.09
2022-09-15T17:47:31.857Z,97955.03
2022-09-15T17:49:59.111Z,97953.81
2022-09-15T17:52:26.265Z,97952.38
2022-09-15T17:54:53.878Z,97961.09
2022-09-15T17:57:21.038Z,97955.97
2022-09-15T17:59:48.465Z,97955.59
2022-09-15T18:02:18.189Z,97963.34
2022-09-15T18:04:45.991Z,97967.44
2022-09-15T18:07:13.365Z,97965.16
2022-09-15T18:09:41.027Z,97962.88
2022-09-15T18:12:09.389Z,97975.44
2022-09-15T18:14:36.890Z,97981.03
2022-09-15T18:17:04.303Z,97975.56
2022-09-15T18:19:32.047Z,97967.69
2022-09-15T18:21:59.481Z,97973.25
2022-09-15T18:24:26.904Z,97982.22
2022-09-15T18:26:54.462Z,97990.75
2022-09-15T18:29:21.989Z,97984.03
2022-09-15T18:31:49.247Z,97991.16
2022-09-15T18:34:17.015Z,97990.69
2022-09-15T18:36:44.213Z,97994.56
2022-09-15T18:39:12.277Z,97990.69
2022-09-15T18:41:40.393Z,97990.84
2022-09-15T18:44:07.825Z,97989.94
2022-09-15T18:46:35.177Z,97984.66
2022-09-15T18:49:03.404Z,97976.75
2022-09-15T18:51:50.537Z,97982.88
2022-09-15T18:54:18.513Z,97985.00
2022-09-15T18:56:45.971Z,97992.28
2022-09-15T18:59:16.663Z,97983.97
2022-09-15T19:01:45.571Z,97984.50
2022-09-15T19:04:13.145Z,97991.53
2022-09-15T19:06:40.604Z,97996.34
2022-09-15T19:09:08.458Z,97992.53
2022-09-15T19:11:35.955Z,97991.72
2022-09-15T19:14:03.409Z,97994.34
2022-09-15T19:16:53.828Z,97996.06
2022-09-15T19:19:20.686Z,97999.38
2022-09-15T19:21:48.586Z,98013.16
2022-09-15T19:24:18.766Z,98010.94
2022-09-15T19:26:47.201Z,98015.81
2022-09-15T19:29:15.799Z,98025.81
2022-09-15T19:31:43.230Z,98025.06
2022-09-15T19:34:10.451Z,98017.97
2022-09-15T19:36:37.963Z,98025.56
2022-09-15T19:39:05.129Z,98031.03
2022-09-15T19:41:32.359Z,98027.41
2022-09-15T19:44:00.911Z,98030.06
2022-09-15T19:46:28.232Z,98031.00
2022-09-15T19:48:55.656Z,98028.13
2022-09-15T19:51:23.377Z,98033.25
2022-09-15T19:53:54.731Z,98038.28
2022-09-15T19:56:22.652Z,98028.22
2022-09-15T19:58:50.017Z,98030.91
2022-09-15T20:01:18.200Z,98030.69
2022-09-15T20:06:32.743Z,98035.16
2022-09-15T20:09:00.464Z,98037.44
2022-09-15T20:11:27.842Z,98042.66
2022-09-15T20:13:55.773Z,98053.62
2022-09-15T20:16:24.056Z,98056.16
2022-09-15T20:18:51.918Z,98074.19
2022-09-15T20:21:32.466Z,98065.66
2022-09-15T20:24:07.591Z,98067.16
2022-09-15T20:26:34.721Z,98069.09
2022-09-15T20:29:02.297Z,98072.28
2022-09-15T20:31:30.210Z,98076.91
2022-09-15T20:33:57.292Z,98083.50
2022-09-15T20:36:25.332Z,98082.69
2022-09-15T20:38:53.232Z,98084.16
2022-09-15T20:41:22.704Z,98075.50
2022-09-15T20:43:50.085Z,98079.47
2022-09-15T20:46:18.918Z,98080.06
2022-09-15T20:48:46.566Z,98100.84
2022-09-15T20:51:13.623Z,98104.97
2022-09-15T20:53:42.356Z,98101.56
2022-09-15T20:56:09.987Z,98099.56
2022-09-15T20:58:37.246Z,98100.84
2022-09-15T21:01:09.117Z,98104.00
2022-09-15T21:03:36.936Z,98103.66
2022-09-15T21:06:06.055Z,98110.34
2022-09-15T21:08:33.436Z,98108.44
2022-09-15T21:11:00.765Z,98109.25
2022-09-15T21:13:29.853Z,98111.06
2022-09-15T21:16:00.362Z,98102.44
2022-09-15T21:18:29.447Z,98098.09
2022-09-15T21:20:57.254Z,98110.84
2022-09-15T21:23:24.658Z,98111.31
2022-09-15T21:26:01.795Z,98113.25
2022-09-15T21:28:30.433Z,98108.78
2022-09-15T21:31:01.902Z,98102.75
2022-09-15T21:33:29.110Z,98100.34
2022-09-15T21:36:06.944Z,98102.50
2022-09-15T21:38:34.765Z,98116.72
2022-09-15T21:41:02.109Z,98114.09
2022-09-15T21:43:30.388Z,98122.19
2022-09-15T21:45:58.033Z,98116.63
2022-09-15T21:48:26.035Z,98128.38
2022-09-15T21:50:53.269Z,98129.25
2022-09-15T21:53:21.098Z,98145.47
2022-09-15T21:55:50.415Z,98149.44
2022-09-15T21:58:21.175Z,98159.56
2022-09-15T22:00:49.117Z,98167.47
2022-09-15T22:03:16.774Z,98178.66
2022-09-15T22:05:44.574Z,98176.38
2022-09-15T22:08:13.003Z,98185.16
2022-09-15T22:10:40.891Z,98184.69
2022-09-15T22:13:08.559Z,98186.16
2022-09-15T22:15:35.709Z,98185.88
2022-09-15T22:18:03.611Z,98188.91
2022-09-15T22:20:31.097Z,98184.69
2022-09-15T22:23:01.365Z,98187.00
2022-09-15T22:25:29.106Z,98185.97
2022-09-15T22:27:56.218Z,98190.00
2022-09-15T22:30:23.333Z,98190.31
2022-09-15T22:32:50.718Z,98190.41
2022-09-15T22:35:17.879Z,98191.56
2022-09-15T22:37:44.971Z,98200.66
2022-09-15T22:40:12.416Z,98199.25
2022-09-15T22:42:39.607Z,98206.59
2022-09-15T22:45:07.434Z,98200.88
2022-09-15T22:47:34.852Z,98219.41
2022-09-15T22:50:01.944Z,98225.63
2022-09-15T22:52:29.062Z,98225.78
2022-09-15T22:54:56.462Z,98235.28
2022-09-15T22:57:23.556Z,98246.31
2022-09-15T22:59:50.657Z,98240.03
2022-09-15T23:02:18.117Z,98246.78
2022-09-15T23:04:45.247Z,98257.66
2022-09-15T23:07:12.613Z,98262.44
2022-09-15T23:09:40.162Z,98263.50
2022-09-15T23:12:09.976Z,98253.44
2022-09-15T23:14:37.080Z,98260.75
2022-09-15T23:17:04.459Z,98273.19
2022-09-15T23:19:31.560Z,98272.09
2022-09-15T23:21:58.652Z,98269.47
2022-09-15T23:24:26.161Z,98269.50
2022-09-15T23:26:53.290Z,98261.34
2022-09-15T23:29:20.415Z,98265.91
2022-09-15T23:31:47.890Z,98266.81
2022-09-15T23:34:15.268Z,98271.84
2022-09-15T23:36:42.396Z,98277.28
2022-09-15T23:39:09.757Z,98264.16
2022-09-15T23:41:38.811Z,98265.22
2022-09-15T23:44:05.988Z,98266.13
2022-09-15T23:46:33.690Z,98267.22
2022-09-15T23:49:00.831Z,98260.72
2022-09-15T23:51:28.028Z,98260.03
2022-09-15T23:53:55.424Z,98254.06
2022-09-15T23:56:22.561Z,98264.50
2022-09-15T23:58:49.725Z,98253.44
